Tinos, Greece
Current Conditions -  °F | °C
As of 8:50 PM on Wednesday 22 Oct 2014 (Local Time) from LGMK Reporting Station
Scattered Clouds Scattered Clouds  
Wind Chill: 66°   Ceiling: Unl
Heat Index: 66°   Visibility: 6mi
Dew Point: 61°   Wind: 9mph
Humidity: 83%   Direction: 190°S
Pressure: 29.77"   Gusts: NA
Location:  37.53°N, 25.17°E
Report Text: LGMK 221750Z 19008KT 9999 SCT020 19/16 Q1008
Loading
Personal Weather Stations






























Interactive Weather Map
Tropical Storm Tracking
New forecast layout! Learn more

10-Day Weather Forecast

Advertisements
Track Severe Weather on mobile